Time;durP1;ratioP1;P1;durP2;ratioP2;P2;SDS_P1;SDS_P2;PMS_P1;PMS_P2;Temp;Humidity;BMP_temperature;BMP_pressure;BME280_temperature;BME280_humidity;BME280_pressure;Samples;Min_cycle;Max_cycle;Signal;HPM_P1;HPM_P2
2023/12/14 00:01:27;;;;;;;4.10;3.40;;;5.50;99.90;;;;;;4987060;28;20187;-31
2023/12/14 00:03:53;;;;;;;4.87;3.60;;;5.60;99.90;;;;;;5009761;28;20222;-31
2023/12/14 00:06:18;;;;;;;3.97;3.33;;;5.60;99.90;;;;;;5009293;28;20191;-31
2023/12/14 00:08:44;;;;;;;4.50;3.80;;;5.60;99.90;;;;;;4995864;28;20183;-32
2023/12/14 00:11:11;;;;;;;4.53;3.53;;;5.60;99.90;;;;;;4993848;28;20278;-31
2023/12/14 00:13:38;;;;;;;4.47;3.30;;;5.70;99.90;;;;;;5009551;28;20290;-31
2023/12/14 00:16:04;;;;;;;3.83;3.43;;;5.70;99.90;;;;;;4990527;28;20210;-31
2023/12/14 00:18:30;;;;;;;3.77;3.40;;;5.60;99.90;;;;;;5009565;28;20187;-31
2023/12/14 00:20:56;;;;;;;4.30;3.60;;;5.60;99.90;;;;;;5009448;28;20191;-31
2023/12/14 00:23:23;;;;;;;4.17;3.40;;;5.50;99.90;;;;;;5009078;28;20206;-31
2023/12/14 00:25:49;;;;;;;4.20;3.33;;;5.60;99.90;;;;;;5009883;28;20216;-31
2023/12/14 00:28:15;;;;;;;3.50;3.20;;;5.60;99.90;;;;;;4998060;28;20182;-31
2023/12/14 00:30:41;;;;;;;4.53;3.40;;;5.60;99.90;;;;;;5004816;28;20198;-31
2023/12/14 00:33:08;;;;;;;4.53;3.30;;;5.60;99.90;;;;;;5004203;28;20225;-31
2023/12/14 00:35:34;;;;;;;3.60;3.30;;;5.60;99.90;;;;;;5008894;28;20195;-31
2023/12/14 00:38:00;;;;;;;3.30;2.87;;;5.60;99.90;;;;;;5006583;28;20193;-31
2023/12/14 00:40:26;;;;;;;3.73;3.30;;;5.60;99.90;;;;;;5005907;28;20189;-31
2023/12/14 00:42:51;;;;;;;3.63;3.07;;;5.50;99.90;;;;;;5006893;28;20207;-32
2023/12/14 00:45:17;;;;;;;3.17;2.80;;;5.40;99.90;;;;;;5006730;28;20234;-32
2023/12/14 00:47:43;;;;;;;3.20;2.63;;;5.30;99.90;;;;;;5007528;28;20293;-31
2023/12/14 00:50:09;;;;;;;3.47;2.87;;;5.40;99.90;;;;;;4992570;28;20187;-31
2023/12/14 00:52:35;;;;;;;2.97;2.67;;;5.40;99.90;;;;;;5008672;28;20222;-31
2023/12/14 00:55:01;;;;;;;3.50;3.13;;;5.50;99.90;;;;;;4988693;28;20214;-31
2023/12/14 00:57:27;;;;;;;3.43;2.93;;;5.50;99.90;;;;;;5006440;28;20197;-31
2023/12/14 00:59:52;;;;;;;3.50;3.20;;;5.50;99.90;;;;;;5009783;28;20202;-31
2023/12/14 01:02:18;;;;;;;3.57;3.27;;;5.60;99.90;;;;;;5007191;28;20211;-31
2023/12/14 01:04:44;;;;;;;4.70;3.40;;;5.60;99.90;;;;;;4991131;28;20229;-31
2023/12/14 01:07:10;;;;;;;4.60;3.40;;;5.60;99.90;;;;;;5007572;28;20187;-32
2023/12/14 01:09:36;;;;;;;3.73;3.30;;;5.60;99.90;;;;;;4988638;28;20194;-32
2023/12/14 01:12:01;;;;;;;3.57;3.27;;;5.60;99.90;;;;;;5009051;28;20237;-31
2023/12/14 01:14:27;;;;;;;3.97;3.40;;;5.70;99.90;;;;;;4991982;28;20206;-32
2023/12/14 01:16:53;;;;;;;3.50;3.20;;;5.60;99.90;;;;;;5008997;28;20220;-31
2023/12/14 01:19:19;;;;;;;4.90;3.13;;;5.70;99.90;;;;;;5008813;28;20198;-31
2023/12/14 01:21:45;;;;;;;3.47;3.17;;;5.70;99.90;;;;;;5009147;28;20187;-31
2023/12/14 01:24:10;;;;;;;4.57;3.70;;;5.60;99.90;;;;;;5007551;28;20306;-32
2023/12/14 01:26:36;;;;;;;4.67;3.43;;;5.70;99.90;;;;;;4993441;28;20190;-31
2023/12/14 01:29:02;;;;;;;4.27;3.60;;;5.70;99.90;;;;;;5009852;28;20185;-31
2023/12/14 01:31:28;;;;;;;4.03;3.60;;;5.70;99.90;;;;;;5013035;28;20255;-31
2023/12/14 01:33:55;;;;;;;3.37;3.07;;;5.70;99.90;;;;;;4995947;28;20226;-32
2023/12/14 01:36:23;;;;;;;4.57;3.50;;;5.70;99.90;;;;;;5013156;28;20301;-31
2023/12/14 01:38:49;;;;;;;4.50;3.80;;;5.70;99.90;;;;;;5007379;28;20294;-31
2023/12/14 01:41:15;;;;;;;4.77;3.47;;;5.70;99.90;;;;;;5012826;28;20202;-32
2023/12/14 01:43:41;;;;;;;6.77;4.17;;;5.70;99.90;;;;;;5008362;28;20221;-32
2023/12/14 01:46:07;;;;;;;4.50;3.83;;;5.70;99.90;;;;;;5003851;28;20179;-32
2023/12/14 01:48:46;;;;;;;3.77;3.40;;;5.70;99.90;;;;;;4992917;28;20192;-32
2023/12/14 01:51:12;;;;;;;4.33;3.17;;;5.70;99.90;;;;;;5003509;28;20186;-32
2023/12/14 01:53:41;;;;;;;3.43;3.10;;;5.60;99.90;;;;;;5004629;28;20211;-31
2023/12/14 01:56:10;;;;;;;4.73;3.70;;;5.60;99.90;;;;;;5006374;28;20187;-31
2023/12/14 01:58:37;;;;;;;5.00;3.63;;;5.60;99.90;;;;;;5009492;28;20181;-31
2023/12/14 02:01:07;;;;;;;4.33;3.93;;;5.50;99.90;;;;;;5007134;28;20353;-31
2023/12/14 02:03:33;;;;;;;4.77;4.07;;;5.50;99.90;;;;;;5007603;28;20251;-31
2023/12/14 02:06:00;;;;;;;5.87;3.83;;;5.50;99.90;;;;;;5005829;28;20265;-31
2023/12/14 02:08:28;;;;;;;5.17;3.77;;;5.50;99.90;;;;;;5008849;28;20185;-32
2023/12/14 02:10:54;;;;;;;4.57;4.17;;;5.40;99.90;;;;;;5005167;28;20274;-32
2023/12/14 02:13:20;;;;;;;4.20;3.57;;;5.50;99.90;;;;;;5006897;28;20207;-32
2023/12/14 02:15:47;;;;;;;4.57;4.07;;;5.50;99.90;;;;;;5005119;28;20659;-31
2023/12/14 02:18:12;;;;;;;4.67;4.17;;;5.40;99.90;;;;;;4991544;28;20195;-31
2023/12/14 02:20:38;;;;;;;4.50;4.10;;;5.40;99.90;;;;;;5005956;28;20189;-32
2023/12/14 02:23:04;;;;;;;5.33;4.73;;;5.40;99.90;;;;;;5004803;28;20214;-31
2023/12/14 02:25:30;;;;;;;5.17;4.67;;;5.40;99.90;;;;;;5004127;28;20211;-32
2023/12/14 02:27:56;;;;;;;7.33;5.90;;;5.40;99.90;;;;;;5004863;28;20211;-31
2023/12/14 02:30:22;;;;;;;6.43;5.30;;;5.40;99.90;;;;;;4991037;28;20179;-31
2023/12/14 02:32:47;;;;;;;7.50;4.90;;;5.40;99.90;;;;;;4990527;28;20194;-31
2023/12/14 02:35:13;;;;;;;5.83;4.90;;;5.40;99.90;;;;;;5005775;28;20222;-30
2023/12/14 02:37:42;;;;;;;5.37;4.87;;;5.40;99.90;;;;;;5008790;28;20206;-31
2023/12/14 02:40:09;;;;;;;6.57;5.07;;;5.40;99.90;;;;;;4988207;28;20192;-32
2023/12/14 02:42:36;;;;;;;5.57;4.90;;;5.40;99.90;;;;;;4989088;28;20214;-31
2023/12/14 02:45:03;;;;;;;6.17;4.93;;;5.50;99.90;;;;;;5007780;28;20203;-31
2023/12/14 02:47:29;;;;;;;6.50;4.40;;;5.40;99.90;;;;;;4982340;28;20190;-31
2023/12/14 02:49:55;;;;;;;7.03;4.33;;;5.50;99.90;;;;;;5004628;28;20178;-32
2023/12/14 02:52:22;;;;;;;4.93;4.43;;;5.50;99.90;;;;;;5003178;28;20219;-31
2023/12/14 02:54:48;;;;;;;5.63;4.10;;;5.50;99.90;;;;;;4992084;28;20227;-31
2023/12/14 02:57:13;;;;;;;7.03;5.00;;;5.50;99.90;;;;;;4985674;28;20183;-31
2023/12/14 02:59:40;;;;;;;5.27;4.50;;;5.50;99.90;;;;;;5005022;28;20218;-32
2023/12/14 03:02:06;;;;;;;7.10;5.27;;;5.60;99.90;;;;;;5018736;28;20211;-31
2023/12/14 03:04:32;;;;;;;4.97;4.47;;;5.60;99.90;;;;;;5015484;28;20203;-31
2023/12/14 03:07:02;;;;;;;5.30;4.80;;;5.60;99.90;;;;;;5003624;28;20180;-31
2023/12/14 03:09:28;;;;;;;5.07;4.57;;;5.60;99.90;;;;;;5019359;28;20179;-31
2023/12/14 03:11:55;;;;;;;6.40;4.37;;;5.60;99.90;;;;;;5005613;28;20203;-31
2023/12/14 03:14:21;;;;;;;5.00;4.30;;;5.60;99.90;;;;;;4987751;28;20199;-31
2023/12/14 03:16:48;;;;;;;4.80;4.00;;;5.70;99.90;;;;;;5003338;28;20198;-32
2023/12/14 03:19:15;;;;;;;4.27;3.73;;;5.70;99.90;;;;;;5008609;28;20273;-32
2023/12/14 03:21:42;;;;;;;5.00;4.30;;;5.70;99.90;;;;;;4983431;28;20204;-31
2023/12/14 03:24:09;;;;;;;5.13;3.60;;;5.70;99.90;;;;;;4991911;28;20210;-32
2023/12/14 03:26:35;;;;;;;4.03;3.60;;;5.70;99.90;;;;;;5000185;28;20194;-31
2023/12/14 03:29:01;;;;;;;5.43;4.13;;;5.70;99.90;;;;;;5002679;28;20183;-31
2023/12/14 03:31:27;;;;;;;4.20;3.33;;;5.70;99.90;;;;;;4984192;28;20188;-31
2023/12/14 03:33:52;;;;;;;4.13;3.47;;;5.70;99.90;;;;;;4997062;28;20218;-31
2023/12/14 03:36:19;;;;;;;4.40;3.87;;;5.70;99.90;;;;;;5005492;28;20267;-32
2023/12/14 03:38:44;;;;;;;3.90;3.50;;;5.70;99.90;;;;;;5004521;28;20197;-32
2023/12/14 03:41:10;;;;;;;3.93;3.53;;;5.70;99.90;;;;;;5003098;28;20231;-31
2023/12/14 03:43:36;;;;;;;4.57;3.67;;;5.70;99.90;;;;;;5005729;28;20708;-31
2023/12/14 03:46:02;;;;;;;3.97;3.23;;;5.70;99.90;;;;;;4991597;28;20179;-32
2023/12/14 03:48:28;;;;;;;3.97;3.57;;;5.70;99.90;;;;;;5003399;28;20176;-31
2023/12/14 03:50:53;;;;;;;3.43;3.13;;;5.70;99.90;;;;;;5003737;28;20186;-31
2023/12/14 03:53:19;;;;;;;5.37;3.20;;;5.70;99.90;;;;;;5002579;28;20190;-31
2023/12/14 03:55:46;;;;;;;3.67;2.93;;;5.70;99.90;;;;;;5002923;28;20284;-32
2023/12/14 03:58:11;;;;;;;4.20;3.80;;;5.70;99.90;;;;;;4985080;28;20194;-31
2023/12/14 04:00:37;;;;;;;4.43;3.47;;;5.70;99.90;;;;;;5002569;28;20248;-32
2023/12/14 04:03:03;;;;;;;4.17;3.77;;;5.70;99.90;;;;;;5001513;28;20219;-31
2023/12/14 04:05:29;;;;;;;5.00;3.47;;;5.70;99.90;;;;;;5000970;28;20199;-31
2023/12/14 04:07:54;;;;;;;3.90;3.30;;;5.70;99.90;;;;;;4984517;28;20195;-31
2023/12/14 04:10:20;;;;;;;5.63;3.90;;;5.70;99.90;;;;;;5005736;28;20210;-32
2023/12/14 04:12:46;;;;;;;4.03;3.63;;;5.80;99.90;;;;;;5003729;28;20191;-31
2023/12/14 04:15:12;;;;;;;4.00;3.60;;;5.80;99.90;;;;;;5003262;28;20211;-32
2023/12/14 04:17:38;;;;;;;5.80;4.33;;;5.80;99.90;;;;;;5001497;28;20194;-32
2023/12/14 04:20:05;;;;;;;5.83;4.70;;;5.80;99.90;;;;;;4989827;28;20209;-32
2023/12/14 04:22:32;;;;;;;5.60;4.80;;;5.80;99.90;;;;;;4990530;28;20286;-31
2023/12/14 04:24:57;;;;;;;5.13;4.27;;;5.80;99.90;;;;;;5001753;28;20206;-32
2023/12/14 04:27:27;;;;;;;5.17;4.30;;;5.80;99.90;;;;;;5002929;28;20185;-31
2023/12/14 04:29:52;;;;;;;6.10;4.73;;;5.80;99.90;;;;;;4992128;28;20256;-32
2023/12/14 04:32:18;;;;;;;5.37;4.83;;;5.80;99.90;;;;;;5002173;28;20268;-31
2023/12/14 04:34:44;;;;;;;5.87;4.60;;;5.80;99.90;;;;;;5001844;28;20226;-32
2023/12/14 04:37:10;;;;;;;5.87;4.90;;;5.80;99.90;;;;;;5002097;28;20188;-32
2023/12/14 04:39:35;;;;;;;7.10;5.03;;;5.80;99.90;;;;;;5002247;28;20190;-32
2023/12/14 04:42:01;;;;;;;5.20;4.60;;;5.80;99.90;;;;;;5003026;28;20186;-31
2023/12/14 04:44:27;;;;;;;7.03;5.60;;;5.80;99.90;;;;;;4994365;28;20321;-31
2023/12/14 04:46:53;;;;;;;5.40;4.90;;;5.80;99.90;;;;;;4998664;28;20238;-31
2023/12/14 04:49:19;;;;;;;5.50;4.90;;;5.80;99.90;;;;;;5004213;28;20226;-31
2023/12/14 04:51:45;;;;;;;6.50;5.63;;;5.80;99.90;;;;;;5005964;28;20283;-31
2023/12/14 04:54:11;;;;;;;6.03;5.43;;;5.80;99.90;;;;;;5003224;28;20297;-31
2023/12/14 04:56:37;;;;;;;6.20;5.60;;;5.80;99.90;;;;;;5002150;28;20180;-32
2023/12/14 04:59:03;;;;;;;5.70;5.20;;;5.80;99.90;;;;;;4983785;28;20689;-31
2023/12/14 05:01:28;;;;;;;5.93;5.27;;;5.80;99.90;;;;;;4983817;28;20278;-31
2023/12/14 05:03:55;;;;;;;6.33;5.43;;;5.80;99.90;;;;;;4999492;28;20208;-31
2023/12/14 05:06:21;;;;;;;5.90;5.30;;;5.80;99.90;;;;;;4992532;28;20187;-31
2023/12/14 05:08:47;;;;;;;5.70;4.87;;;5.80;99.90;;;;;;4992422;28;20186;-31
2023/12/14 05:11:13;;;;;;;4.77;4.27;;;5.80;99.90;;;;;;5011555;28;20186;-31
2023/12/14 05:13:40;;;;;;;6.03;4.90;;;5.80;99.90;;;;;;5010668;28;20235;-32
2023/12/14 05:16:12;;;;;;;4.70;4.20;;;5.80;99.90;;;;;;5011627;28;20179;-31
2023/12/14 05:18:38;;;;;;;4.70;4.20;;;5.80;99.90;;;;;;4989871;28;20266;-31
2023/12/14 05:21:04;;;;;;;4.63;4.00;;;5.70;99.90;;;;;;5012460;28;20214;-31
2023/12/14 05:23:30;;;;;;;6.03;4.60;;;5.80;99.90;;;;;;4999199;28;20214;-32
2023/12/14 05:25:55;;;;;;;8.60;6.37;;;5.80;99.90;;;;;;4994213;28;20270;-32
2023/12/14 05:28:21;;;;;;;6.77;6.07;;;5.80;99.90;;;;;;5011499;28;20182;-31
2023/12/14 05:30:47;;;;;;;7.17;6.40;;;5.70;99.90;;;;;;5004686;28;20187;-31
2023/12/14 05:33:13;;;;;;;7.80;6.67;;;5.70;99.90;;;;;;5006678;28;20222;-31
2023/12/14 05:35:38;;;;;;;8.27;6.67;;;5.70;99.90;;;;;;5018012;28;20196;-31
2023/12/14 05:38:04;;;;;;;7.83;7.03;;;5.70;99.90;;;;;;5005505;28;20190;-32
2023/12/14 05:40:31;;;;;;;8.00;6.93;;;5.70;99.90;;;;;;5008441;28;20179;-32
2023/12/14 05:42:57;;;;;;;8.53;6.83;;;5.70;99.90;;;;;;5005566;28;20210;-31
2023/12/14 05:45:23;;;;;;;7.67;6.87;;;5.70;99.90;;;;;;5008035;28;20210;-31
2023/12/14 05:47:51;;;;;;;9.20;7.60;;;5.70;99.90;;;;;;4993666;28;20184;-31
2023/12/14 05:50:17;;;;;;;8.93;7.63;;;5.70;99.90;;;;;;4994019;28;20183;-32
2023/12/14 05:52:45;;;;;;;10.23;8.03;;;5.70;99.90;;;;;;5006130;28;20321;-32
2023/12/14 05:55:11;;;;;;;9.60;7.83;;;5.70;99.90;;;;;;4991745;28;20214;-31
2023/12/14 05:57:37;;;;;;;10.40;8.20;;;5.60;99.90;;;;;;5001942;28;20193;-31
2023/12/14 06:00:08;;;;;;;10.10;8.00;;;5.60;99.90;;;;;;4991630;28;20192;-31
2023/12/14 06:02:36;;;;;;;9.57;8.27;;;5.60;99.90;;;;;;5005882;28;20260;-32
2023/12/14 06:05:01;;;;;;;10.90;8.90;;;5.60;99.90;;;;;;4992221;28;20249;-31
2023/12/14 06:07:27;;;;;;;10.30;8.03;;;5.60;99.90;;;;;;5006575;28;20222;-31
2023/12/14 06:09:53;;;;;;;10.10;8.67;;;5.60;99.90;;;;;;5007339;28;20190;-31
2023/12/14 06:12:19;;;;;;;10.53;8.00;;;5.70;99.90;;;;;;4998413;28;20187;-32
2023/12/14 06:14:45;;;;;;;9.70;7.87;;;5.70;99.90;;;;;;4995049;28;20218;-31
2023/12/14 06:17:10;;;;;;;9.67;8.03;;;5.70;99.90;;;;;;5011662;28;20207;-31
2023/12/14 06:19:36;;;;;;;10.23;8.30;;;5.70;99.90;;;;;;4998028;28;20187;-31
2023/12/14 06:22:02;;;;;;;10.20;7.67;;;5.80;99.90;;;;;;5011309;28;20182;-31
2023/12/14 06:24:28;;;;;;;11.20;8.60;;;5.80;99.90;;;;;;4992145;28;20557;-31
2023/12/14 06:26:54;;;;;;;8.20;7.20;;;5.80;99.90;;;;;;5010598;28;20195;-32
2023/12/14 06:29:20;;;;;;;9.17;7.70;;;5.80;99.90;;;;;;5007927;28;20199;-31
2023/12/14 06:31:46;;;;;;;9.03;7.70;;;5.80;99.90;;;;;;5012222;28;20183;-32
2023/12/14 06:34:12;;;;;;;9.73;7.47;;;5.80;99.90;;;;;;5022151;28;20220;-32
2023/12/14 06:36:42;;;;;;;9.30;7.40;;;5.80;99.90;;;;;;5011200;28;20262;-32
2023/12/14 06:39:08;;;;;;;8.43;7.03;;;5.80;99.90;;;;;;5008574;28;20188;-31
2023/12/14 06:41:34;;;;;;;9.67;7.63;;;5.80;99.90;;;;;;5006866;28;20198;-31
2023/12/14 06:44:00;;;;;;;8.53;7.00;;;5.80;99.90;;;;;;5007598;28;20688;-31
2023/12/14 06:46:27;;;;;;;9.23;7.03;;;5.80;99.90;;;;;;5005956;28;20226;-31
2023/12/14 06:48:53;;;;;;;9.77;7.83;;;5.80;99.90;;;;;;5008960;28;20194;-31
2023/12/14 06:51:19;;;;;;;9.47;7.87;;;5.80;99.90;;;;;;5011686;28;20186;-31
2023/12/14 06:53:47;;;;;;;8.60;7.27;;;5.80;99.90;;;;;;5009025;28;20199;-31
2023/12/14 06:56:13;;;;;;;10.37;7.80;;;5.80;99.90;;;;;;4995207;28;20190;-32
2023/12/14 06:58:41;;;;;;;10.57;8.20;;;5.80;99.90;;;;;;5008391;28;20193;-31
2023/12/14 07:01:08;;;;;;;9.63;8.60;;;5.90;99.90;;;;;;5005210;28;20179;-31
2023/12/14 07:03:36;;;;;;;10.17;8.47;;;5.90;99.90;;;;;;5008433;28;20242;-31
2023/12/14 07:06:02;;;;;;;9.90;7.90;;;5.90;99.90;;;;;;4994548;28;20224;-31
2023/12/14 07:08:29;;;;;;;13.20;9.07;;;5.90;99.90;;;;;;5008383;28;20200;-31
2023/12/14 07:10:55;;;;;;;11.33;8.33;;;5.90;99.90;;;;;;5009691;28;20190;-31
2023/12/14 07:13:21;;;;;;;12.77;8.90;;;5.90;99.90;;;;;;4993594;28;20187;-31
2023/12/14 07:15:47;;;;;;;11.37;9.10;;;5.90;99.90;;;;;;5010862;28;20195;-31
2023/12/14 07:18:13;;;;;;;14.80;9.83;;;5.90;99.90;;;;;;5009113;28;20209;-32
2023/12/14 07:20:39;;;;;;;10.93;8.33;;;5.90;99.90;;;;;;4994184;28;20191;-32
2023/12/14 07:23:05;;;;;;;10.43;8.47;;;5.90;99.90;;;;;;4994901;28;20220;-31
2023/12/14 07:25:31;;;;;;;9.20;8.20;;;5.80;99.90;;;;;;5010354;28;20211;-31
2023/12/14 07:27:57;;;;;;;11.73;8.97;;;5.90;99.90;;;;;;5013679;28;20239;-31
2023/12/14 07:30:22;;;;;;;11.07;9.43;;;5.90;99.90;;;;;;5013749;28;20252;-32
2023/12/14 07:32:48;;;;;;;11.30;9.17;;;5.90;99.90;;;;;;5008999;28;20191;-32
2023/12/14 07:35:14;;;;;;;9.90;8.90;;;5.90;99.90;;;;;;5010953;28;20214;-32
2023/12/14 07:37:40;;;;;;;12.03;9.73;;;5.90;99.90;;;;;;5008003;28;20198;-31
2023/12/14 07:40:07;;;;;;;10.80;9.37;;;5.80;99.90;;;;;;4994351;28;20210;-32
2023/12/14 07:42:33;;;;;;;10.03;8.57;;;5.80;99.90;;;;;;4998127;28;20377;-31
2023/12/14 07:44:59;;;;;;;9.47;8.10;;;5.90;99.90;;;;;;5013405;28;20322;-31
2023/12/14 07:47:25;;;;;;;11.07;9.30;;;5.90;99.90;;;;;;4986411;28;20194;-31
2023/12/14 07:49:51;;;;;;;11.77;8.80;;;5.90;99.90;;;;;;5009007;28;20236;-31
2023/12/14 07:52:16;;;;;;;10.77;8.90;;;5.90;99.90;;;;;;5010505;28;20202;-32
2023/12/14 07:54:43;;;;;;;10.90;8.80;;;5.90;99.90;;;;;;5008662;28;20211;-31
2023/12/14 07:57:08;;;;;;;9.57;7.43;;;5.90;99.90;;;;;;5008637;28;20347;-32
2023/12/14 07:59:34;;;;;;;9.30;6.97;;;5.90;99.90;;;;;;5007547;28;20187;-31
2023/12/14 08:02:00;;;;;;;6.57;5.70;;;5.90;99.90;;;;;;5009750;28;20197;-31
2023/12/14 08:04:26;;;;;;;6.53;5.83;;;6.00;99.90;;;;;;5006329;28;20318;-31
2023/12/14 08:06:52;;;;;;;7.93;5.63;;;6.00;99.90;;;;;;5008966;28;20270;-32
2023/12/14 08:09:17;;;;;;;5.93;5.33;;;6.00;99.90;;;;;;5009646;28;20202;-31
2023/12/14 08:11:43;;;;;;;7.17;5.37;;;6.00;99.90;;;;;;5009698;28;20186;-32
2023/12/14 08:14:09;;;;;;;7.83;5.43;;;6.00;99.90;;;;;;5007938;28;20341;-31
2023/12/14 08:16:36;;;;;;;8.90;4.97;;;6.00;99.90;;;;;;4993533;28;20187;-31
2023/12/14 08:19:01;;;;;;;5.93;5.20;;;6.00;99.90;;;;;;5006516;28;20186;-31
2023/12/14 08:21:27;;;;;;;6.37;5.33;;;6.00;99.90;;;;;;5009926;28;20270;-31
2023/12/14 08:23:53;;;;;;;6.77;4.87;;;6.00;99.90;;;;;;5001303;28;20216;-31
2023/12/14 08:26:18;;;;;;;6.27;5.40;;;6.00;99.90;;;;;;5008432;28;20183;-31
2023/12/14 08:28:44;;;;;;;7.00;5.20;;;6.00;99.90;;;;;;5006150;28;20255;-32
2023/12/14 08:31:11;;;;;;;8.47;5.87;;;6.00;99.90;;;;;;5008808;28;20225;-31
2023/12/14 08:33:37;;;;;;;6.87;5.70;;;6.10;99.90;;;;;;4992236;28;20329;-32
2023/12/14 08:36:05;;;;;;;7.37;6.20;;;6.10;99.90;;;;;;5009325;28;20211;-33
2023/12/14 08:38:34;;;;;;;7.50;6.30;;;6.10;99.90;;;;;;5008106;28;20196;-32
2023/12/14 08:41:00;;;;;;;6.57;5.53;;;6.20;99.90;;;;;;5009823;28;20216;-32
2023/12/14 08:43:26;;;;;;;6.17;5.23;;;6.20;99.90;;;;;;5005912;28;20211;-33
2023/12/14 08:45:52;;;;;;;8.47;6.50;;;6.20;99.90;;;;;;5005460;28;20183;-32
2023/12/14 08:48:19;;;;;;;7.83;6.60;;;6.20;99.90;;;;;;5008582;28;20186;-32
2023/12/14 08:50:45;;;;;;;8.53;6.23;;;6.20;99.90;;;;;;4993541;28;20186;-32
2023/12/14 08:53:11;;;;;;;6.97;6.20;;;6.20;99.90;;;;;;5006482;28;20706;-33
2023/12/14 08:55:37;;;;;;;7.03;5.93;;;6.20;99.90;;;;;;5008117;28;20183;-32
2023/12/14 08:58:03;;;;;;;7.23;5.87;;;6.30;99.90;;;;;;5008289;28;20181;-33
2023/12/14 09:00:28;;;;;;;8.10;5.60;;;6.30;99.90;;;;;;5009163;28;20197;-35
2023/12/14 09:02:54;;;;;;;7.33;5.80;;;6.30;99.90;;;;;;5006430;28;20214;-34
2023/12/14 09:05:21;;;;;;;7.47;6.67;;;6.40;99.90;;;;;;5009124;28;20203;-32
2023/12/14 09:07:54;;;;;;;11.23;8.10;;;6.40;99.90;;;;;;5005902;28;20203;-32
2023/12/14 09:10:20;;;;;;;9.57;7.50;;;6.40;99.90;;;;;;5024677;28;20176;-32
2023/12/14 09:12:46;;;;;;;9.93;6.90;;;6.50;99.90;;;;;;5006053;28;20194;-32
2023/12/14 09:15:12;;;;;;;8.50;6.60;;;6.50;99.90;;;;;;4989228;28;20214;-32
2023/12/14 09:17:38;;;;;;;8.03;5.67;;;6.50;99.90;;;;;;5002605;28;20188;-33
2023/12/14 09:20:04;;;;;;;7.97;6.67;;;6.50;99.90;;;;;;5009234;28;20194;-35
2023/12/14 09:22:31;;;;;;;7.90;5.70;;;6.60;99.90;;;;;;4990782;28;20207;-32
2023/12/14 09:24:57;;;;;;;9.07;5.60;;;6.60;99.90;;;;;;5007846;28;20207;-33
2023/12/14 09:27:24;;;;;;;6.67;5.73;;;6.60;99.90;;;;;;5005754;28;20183;-31
2023/12/14 09:29:51;;;;;;;5.77;5.00;;;6.70;99.90;;;;;;5008982;28;20237;-33
2023/12/14 09:32:17;;;;;;;6.97;5.63;;;6.70;99.90;;;;;;5006860;28;20185;-32
2023/12/14 09:34:44;;;;;;;8.70;5.90;;;6.70;99.90;;;;;;4995529;28;20238;-33
2023/12/14 09:37:11;;;;;;;6.27;5.17;;;6.80;99.90;;;;;;5008048;28;20202;-32
2023/12/14 09:39:37;;;;;;;5.27;4.70;;;6.80;99.90;;;;;;5006583;28;20195;-35
2023/12/14 09:42:04;;;;;;;5.70;5.07;;;6.90;99.90;;;;;;5008556;28;20187;-31
2023/12/14 09:44:31;;;;;;;6.13;4.57;;;6.90;99.90;;;;;;5000805;28;20206;-29
2023/12/14 09:47:00;;;;;;;4.13;3.70;;;6.90;99.90;;;;;;5009813;28;20207;-33
2023/12/14 09:49:32;;;;;;;3.50;3.20;;;7.00;99.90;;;;;;5020594;28;20182;-34
2023/12/14 09:51:59;;;;;;;4.50;3.87;;;7.00;99.90;;;;;;4995923;28;20179;-34
2023/12/14 09:54:27;;;;;;;6.53;3.73;;;7.10;99.90;;;;;;5008781;28;20198;-33
2023/12/14 09:56:55;;;;;;;4.73;3.70;;;7.20;99.90;;;;;;5012357;28;20215;-34
2023/12/14 09:59:21;;;;;;;5.33;3.87;;;7.20;99.90;;;;;;5011103;28;20186;-35
2023/12/14 10:01:47;;;;;;;4.53;3.50;;;7.30;99.90;;;;;;4996633;28;20187;-33
2023/12/14 10:04:18;;;;;;;8.17;3.73;;;7.30;99.90;;;;;;5008123;28;20532;-35
2023/12/14 10:06:46;;;;;;;4.27;3.67;;;7.30;99.90;;;;;;4995717;28;20187;-33
2023/12/14 10:09:15;;;;;;;3.87;3.47;;;7.40;99.90;;;;;;5012313;28;20182;-33
2023/12/14 10:11:43;;;;;;;6.17;3.17;;;7.40;99.90;;;;;;4996046;28;20186;-34
2023/12/14 10:14:20;;;;;;;4.50;3.17;;;7.50;99.90;;;;;;5014139;28;20203;-33
2023/12/14 10:16:48;;;;;;;4.90;3.40;;;7.50;99.90;;;;;;5003831;28;20211;-33
2023/12/14 10:19:16;;;;;;;4.20;3.33;;;7.60;99.90;;;;;;4995555;28;20203;-33
2023/12/14 10:21:42;;;;;;;3.40;2.73;;;7.60;99.90;;;;;;4994491;28;20241;-32
2023/12/14 10:24:08;;;;;;;2.93;2.63;;;7.70;99.90;;;;;;5010650;28;20306;-34
2023/12/14 10:26:35;;;;;;;7.73;2.63;;;7.70;99.90;;;;;;4995465;28;20291;-35
2023/12/14 10:29:04;;;;;;;3.20;2.27;;;7.70;99.90;;;;;;5010075;28;20194;-33
2023/12/14 10:31:37;;;;;;;4.00;2.33;;;7.70;99.90;;;;;;5011750;28;20171;-34
2023/12/14 10:34:06;;;;;;;3.67;2.70;;;7.70;99.90;;;;;;5010622;28;20215;-33
2023/12/14 10:36:34;;;;;;;3.40;2.63;;;7.70;99.90;;;;;;5012232;28;20183;-33
2023/12/14 10:39:01;;;;;;;3.67;2.60;;;7.60;99.90;;;;;;5007542;28;20218;-32
2023/12/14 10:41:33;;;;;;;5.40;3.40;;;7.60;99.90;;;;;;5007741;28;20186;-32
2023/12/14 10:44:01;;;;;;;3.00;2.70;;;7.60;99.90;;;;;;5010111;28;20219;-31
2023/12/14 10:46:29;;;;;;;3.77;2.40;;;7.60;99.90;;;;;;4995040;28;20226;-32
2023/12/14 10:49:01;;;;;;;3.67;2.37;;;7.60;99.90;;;;;;5009598;28;20179;-34
2023/12/14 10:51:29;;;;;;;4.17;2.40;;;7.70;99.90;;;;;;5011882;28;20178;-34
2023/12/14 10:53:57;;;;;;;3.03;2.30;;;7.70;99.90;;;;;;5006668;28;20261;-34
2023/12/14 10:56:23;;;;;;;3.30;2.53;;;7.70;99.90;;;;;;5011743;28;20186;-32
2023/12/14 10:58:58;;;;;;;2.60;2.30;;;7.70;99.90;;;;;;4997406;28;20241;-34
2023/12/14 11:01:27;;;;;;;3.23;2.30;;;7.80;99.90;;;;;;4994325;28;20195;-35
2023/12/14 11:03:58;;;;;;;2.27;2.03;;;7.80;99.90;;;;;;5010748;28;20277;-33
2023/12/14 11:06:24;;;;;;;2.33;1.97;;;7.90;99.90;;;;;;5009205;28;20242;-33
2023/12/14 11:08:57;;;;;;;3.60;1.97;;;7.90;99.90;;;;;;5007076;28;20266;-32
2023/12/14 11:11:22;;;;;;;2.87;1.80;;;8.00;99.90;;;;;;5009706;28;20179;-33
2023/12/14 11:13:53;;;;;;;3.17;1.97;;;8.00;99.90;;;;;;5000276;28;20211;-33
2023/12/14 11:16:30;;;;;;;2.33;2.13;;;8.10;99.90;;;;;;5001166;28;20218;-33
2023/12/14 11:19:21;;;;;;;2.43;2.23;;;8.10;99.90;;;;;;5005655;28;20187;-34
2023/12/14 11:21:48;;;;;;;4.33;1.70;;;8.20;99.90;;;;;;5006428;28;20195;-35
2023/12/14 11:24:14;;;;;;;2.83;1.80;;;8.30;99.90;;;;;;4995677;28;20218;-34
2023/12/14 11:26:41;;;;;;;4.57;2.00;;;8.30;99.90;;;;;;5010471;28;20276;-32
2023/12/14 11:29:07;;;;;;;2.67;1.83;;;8.40;99.90;;;;;;5003049;28;20191;-33
2023/12/14 11:31:35;;;;;;;3.20;1.37;;;8.50;99.90;;;;;;5010117;28;20183;-35
2023/12/14 11:34:03;;;;;;;2.90;1.63;;;8.60;99.90;;;;;;5006390;28;20231;-34
2023/12/14 11:36:29;;;;;;;1.97;1.50;;;8.60;99.90;;;;;;4995549;28;20230;-33
2023/12/14 11:38:55;;;;;;;2.23;1.30;;;8.60;99.90;;;;;;4995488;28;20187;-34
2023/12/14 11:41:21;;;;;;;1.80;1.20;;;8.60;99.90;;;;;;4990766;28;20180;-34
2023/12/14 11:43:48;;;;;;;2.70;1.90;;;8.60;99.90;;;;;;4998488;28;20211;-34
2023/12/14 11:46:15;;;;;;;1.83;1.50;;;8.60;99.90;;;;;;4985121;28;20242;-35
2023/12/14 11:48:44;;;;;;;1.60;1.50;;;8.70;99.90;;;;;;4994456;28;20183;-33
2023/12/14 11:51:10;;;;;;;1.30;1.20;;;8.70;99.90;;;;;;5006347;28;20219;-36
2023/12/14 11:53:38;;;;;;;2.53;1.40;;;8.80;99.90;;;;;;5005729;28;20227;-34
2023/12/14 11:56:05;;;;;;;2.10;1.30;;;8.80;99.90;;;;;;5006488;28;20202;-29
2023/12/14 11:58:34;;;;;;;1.33;1.23;;;8.80;99.90;;;;;;5003292;28;20180;-30
2023/12/14 12:01:17;;;;;;;1.47;1.33;;;8.80;99.90;;;;;;4982943;28;20203;-34
2023/12/14 12:03:44;;;;;;;1.70;1.33;;;8.90;99.90;;;;;;5009393;28;20692;-33
2023/12/14 12:06:36;;;;;;;2.03;1.40;;;8.90;99.90;;;;;;5010589;28;20200;-32
2023/12/14 12:09:07;;;;;;;2.30;1.20;;;8.90;99.90;;;;;;5008831;28;20184;-32
2023/12/14 12:11:33;;;;;;;1.40;1.00;;;8.90;99.90;;;;;;5008872;28;20176;-30
2023/12/14 12:14:00;;;;;;;1.73;1.30;;;8.80;99.90;;;;;;5006407;28;20233;-29
2023/12/14 12:16:25;;;;;;;2.30;1.07;;;8.70;99.90;;;;;;5008815;28;20187;-29
2023/12/14 12:18:52;;;;;;;1.00;0.90;;;8.70;99.90;;;;;;5010065;28;20245;-31
2023/12/14 12:21:17;;;;;;;2.27;1.30;;;8.70;99.90;;;;;;5010399;28;20184;-32
2023/12/14 12:23:43;;;;;;;1.13;1.00;;;8.60;99.90;;;;;;5009241;28;20203;-32
2023/12/14 12:26:10;;;;;;;1.57;1.30;;;8.60;99.90;;;;;;4993785;28;20186;-31
2023/12/14 12:28:36;;;;;;;1.50;1.30;;;8.60;99.90;;;;;;5007583;28;20191;-32
2023/12/14 12:31:03;;;;;;;2.17;1.40;;;8.60;99.90;;;;;;4988314;28;20278;-31
2023/12/14 12:33:29;;;;;;;1.50;1.10;;;8.50;99.90;;;;;;4989175;28;20200;-31
2023/12/14 12:35:55;;;;;;;1.87;1.10;;;8.50;99.90;;;;;;5005580;28;20237;-34
2023/12/14 12:38:21;;;;;;;1.40;1.23;;;8.40;99.90;;;;;;4993138;28;20641;-33
2023/12/14 12:40:47;;;;;;;1.07;0.90;;;8.50;99.90;;;;;;5010746;28;20198;-33
2023/12/14 12:43:16;;;;;;;0.83;0.80;;;8.50;99.90;;;;;;5012043;28;20234;-29
2023/12/14 12:45:43;;;;;;;1.00;0.90;;;8.50;99.90;;;;;;5002971;28;20184;-31
2023/12/14 12:48:10;;;;;;;2.07;1.00;;;8.50;99.90;;;;;;5008257;28;20237;-30
2023/12/14 12:50:35;;;;;;;1.63;1.10;;;8.50;99.90;;;;;;5009366;28;20231;-29
2023/12/14 12:53:01;;;;;;;2.33;0.90;;;8.50;99.90;;;;;;5004430;28;20195;-30